createdAt,value
2022-09-12T00:01:07.989Z,13.20
2022-09-12T00:03:35.672Z,12.35
2022-09-12T00:06:13.042Z,13.27
2022-09-12T00:08:40.130Z,13.60
2022-09-12T00:11:10.411Z,13.35
2022-09-12T00:13:41.819Z,14.70
2022-09-12T00:16:20.813Z,13.43
2022-09-12T00:18:48.214Z,12.50
2022-09-12T00:21:16.885Z,13.77
2022-09-12T00:23:44.153Z,14.30
2022-09-12T00:26:11.367Z,13.75
2022-09-12T00:28:40.621Z,14.32
2022-09-12T00:31:11.940Z,15.65
2022-09-12T00:33:39.540Z,14.32
2022-09-12T00:36:14.975Z,14.98
2022-09-12T00:38:43.952Z,15.18
2022-09-12T00:41:19.271Z,15.23
2022-09-12T00:43:50.651Z,16.25
2022-09-12T00:46:29.785Z,15.80
2022-09-12T00:49:48.531Z,16.30
2022-09-12T00:52:26.794Z,15.00
2022-09-12T00:55:06.284Z,15.82
2022-09-12T00:57:38.417Z,16.00
2022-09-12T01:00:20.685Z,16.10
2022-09-12T01:02:57.272Z,16.05
2022-09-12T01:05:26.731Z,16.52
2022-09-12T01:07:56.567Z,14.13
2022-09-12T01:10:24.246Z,15.88
2022-09-12T01:12:51.817Z,14.90
2022-09-12T01:15:18.812Z,15.05
2022-09-12T01:18:17.927Z,15.65
2022-09-12T01:21:21.979Z,16.00
2022-09-12T01:27:52.239Z,15.30
2022-09-12T01:30:23.517Z,15.82
2022-09-12T01:33:33.652Z,15.27
2022-09-12T01:36:34.706Z,16.15
2022-09-12T01:39:18.386Z,16.17
2022-09-12T01:42:26.336Z,17.15
2022-09-12T01:51:39.957Z,15.27
2022-09-12T01:59:49.044Z,15.65
2022-09-12T02:02:40.463Z,16.33
2022-09-12T02:05:21.751Z,17.20
2022-09-12T02:07:54.196Z,17.75
2022-09-12T02:10:30.379Z,19.05
2022-09-12T02:13:07.728Z,18.27
2022-09-12T02:15:43.939Z,17.85
2022-09-12T02:18:18.038Z,18.65
2022-09-12T02:20:49.294Z,18.45
2022-09-12T02:23:26.905Z,18.58
2022-09-12T02:26:00.134Z,17.73
2022-09-12T02:28:33.612Z,18.23
2022-09-12T02:31:32.814Z,17.08
2022-09-12T02:34:11.540Z,18.10
2022-09-12T02:37:25.962Z,18.27
2022-09-12T02:39:56.072Z,19.50
2022-09-12T02:42:24.335Z,19.08
2022-09-12T02:44:54.778Z,19.45
2022-09-12T02:47:44.236Z,18.88
2022-09-12T02:50:12.094Z,17.67
2022-09-12T02:52:40.683Z,19.40
2022-09-12T02:55:11.656Z,17.95
2022-09-12T02:57:38.988Z,17.67
2022-09-12T03:00:08.229Z,19.40
2022-09-12T03:02:59.991Z,19.38
2022-09-12T03:05:45.605Z,20.90
2022-09-12T03:08:42.025Z,17.65
2022-09-12T03:11:31.495Z,18.67
2022-09-12T03:14:47.295Z,18.33
2022-09-12T03:17:48.886Z,18.92
2022-09-12T03:20:51.150Z,18.17
2022-09-12T03:23:38.054Z,17.17
2022-09-12T03:26:21.247Z,17.67
2022-09-12T03:28:49.794Z,20.02
2022-09-12T03:31:19.238Z,18.80
2022-09-12T03:33:46.569Z,17.92
2022-09-12T03:36:20.405Z,18.02
2022-09-12T03:38:47.853Z,19.17
2022-09-12T03:41:15.095Z,17.67
2022-09-12T03:43:42.249Z,18.58
2022-09-12T03:46:09.676Z,18.80
2022-09-12T03:48:37.098Z,19.90
2022-09-12T03:51:07.809Z,18.98
2022-09-12T03:53:35.257Z,20.55
2022-09-12T03:56:12.552Z,22.48
2022-09-12T03:58:39.799Z,21.10
2022-09-12T04:01:12.873Z,20.08
2022-09-12T04:03:45.514Z,21.27
2022-09-12T04:06:15.620Z,20.55
2022-09-12T04:08:44.330Z,20.60
2022-09-12T04:11:14.674Z,21.42
2022-09-12T04:13:44.735Z,21.65
2022-09-12T04:16:14.507Z,21.17
2022-09-12T04:18:42.096Z,21.35
2022-09-12T04:21:14.076Z,20.25
2022-09-12T04:23:41.099Z,21.15
2022-09-12T04:26:08.610Z,22.13
2022-09-12T04:28:37.737Z,20.58
2022-09-12T04:31:09.009Z,21.17
2022-09-12T04:33:36.683Z,20.95
2022-09-12T04:36:07.029Z,20.70
2022-09-12T04:38:36.161Z,19.67
2022-09-12T04:41:22.112Z,19.95
2022-09-12T04:43:58.902Z,20.55
2022-09-12T04:46:26.870Z,21.23
2022-09-12T04:48:56.983Z,21.00
2022-09-12T04:51:28.208Z,22.42
2022-09-12T04:54:00.299Z,22.67
2022-09-12T04:56:28.542Z,23.35
2022-09-12T04:58:59.042Z,23.85
2022-09-12T05:01:28.661Z,23.13
2022-09-12T05:03:56.836Z,20.70
2022-09-12T05:06:28.130Z,24.67
2022-09-12T05:08:56.558Z,24.92
2022-09-12T05:11:41.193Z,26.40
2022-09-12T05:14:14.230Z,23.85
2022-09-12T05:16:41.387Z,23.48
2022-09-12T05:19:11.239Z,23.15
2022-09-12T05:21:38.880Z,24.60
2022-09-12T05:24:06.727Z,24.88
2022-09-12T05:26:33.753Z,27.10
2022-09-12T05:29:01.368Z,26.08
2022-09-12T05:31:28.956Z,25.88
2022-09-12T05:33:57.230Z,24.88
2022-09-12T05:36:30.460Z,21.83
2022-09-12T05:39:00.193Z,23.67
2022-09-12T05:41:34.022Z,22.10
2022-09-12T05:44:07.058Z,24.33
2022-09-12T05:46:40.814Z,24.30
2022-09-12T05:49:11.595Z,23.00
2022-09-12T05:51:45.198Z,23.98
2022-09-12T05:54:15.412Z,23.35
2022-09-12T05:56:44.205Z,21.95
2022-09-12T05:59:22.279Z,22.85
2022-09-12T06:01:49.807Z,24.02
2022-09-12T06:04:17.835Z,24.02
2022-09-12T06:06:46.366Z,24.60
2022-09-12T06:09:16.285Z,23.98
2022-09-12T06:11:45.408Z,24.65
2022-09-12T06:14:16.008Z,24.23
2022-09-12T06:16:43.261Z,23.05
2022-09-12T06:19:20.406Z,23.48
2022-09-12T06:21:49.759Z,23.20
2022-09-12T06:24:18.817Z,22.70
2022-09-12T06:26:50.414Z,24.13
2022-09-12T06:29:19.477Z,23.10
2022-09-12T06:31:46.823Z,23.13
2022-09-12T06:34:16.415Z,21.80
2022-09-12T06:36:46.879Z,20.80
2022-09-12T06:39:22.688Z,18.75
2022-09-12T06:41:52.122Z,18.20
2022-09-12T06:44:30.637Z,17.00
2022-09-12T06:46:58.763Z,15.68
2022-09-12T06:49:25.757Z,14.48
2022-09-12T06:51:53.020Z,12.82
2022-09-12T06:54:20.521Z,10.65
2022-09-12T06:56:47.833Z,10.57
2022-09-12T06:59:15.075Z,11.88
2022-09-12T07:01:42.344Z,12.07
2022-09-12T07:04:10.638Z,10.63
2022-09-12T07:06:41.481Z,11.98
2022-09-12T07:09:12.961Z,11.35
2022-09-12T07:11:42.382Z,8.60
2022-09-12T07:14:14.048Z,11.60
2022-09-12T07:16:41.913Z,6.35
2022-09-12T07:19:10.166Z,7.75
2022-09-12T07:21:40.303Z,6.45
2022-09-12T07:24:10.500Z,6.90
2022-09-12T07:26:40.534Z,6.97
2022-09-12T07:29:35.758Z,7.38
2022-09-12T07:32:05.605Z,7.50
2022-09-12T07:34:32.846Z,8.90
2022-09-12T07:36:59.805Z,8.40
2022-09-12T07:39:26.742Z,6.35
2022-09-12T07:41:53.776Z,8.45
2022-09-12T07:44:22.060Z,5.25
2022-09-12T07:46:50.518Z,5.15
2022-09-12T07:49:17.421Z,4.45
2022-09-12T07:51:44.413Z,4.45
2022-09-12T07:54:11.969Z,5.20
2022-09-12T07:56:39.626Z,4.72
2022-09-12T07:59:08.102Z,4.45
2022-09-12T08:01:35.375Z,4.45
2022-09-12T08:04:03.495Z,4.75
2022-09-12T08:06:32.198Z,4.75
2022-09-12T08:09:00.155Z,4.32
2022-09-12T08:11:29.266Z,3.78
2022-09-12T08:13:58.059Z,3.90
2022-09-12T08:16:31.184Z,4.03
2022-09-12T08:19:00.677Z,4.43
2022-09-12T08:21:33.077Z,4.45
2022-09-12T08:24:05.979Z,3.90
2022-09-12T08:26:34.142Z,3.90
2022-09-12T08:29:01.568Z,3.45
2022-09-12T08:31:29.448Z,3.87
2022-09-12T08:33:58.334Z,3.90
2022-09-12T08:36:28.221Z,3.67
2022-09-12T08:39:06.043Z,3.40
2022-09-12T08:41:35.181Z,3.47
2022-09-12T08:44:43.776Z,3.75
2022-09-12T08:47:27.701Z,4.22
2022-09-12T08:50:10.008Z,3.45
2022-09-12T08:53:03.388Z,4.60
2022-09-12T08:55:35.847Z,4.07
2022-09-12T08:58:24.495Z,3.50
2022-09-12T09:01:07.344Z,4.95
2022-09-12T09:03:52.806Z,4.43
2022-09-12T09:07:05.453Z,4.25
2022-09-12T09:09:50.864Z,4.13
2022-09-12T09:12:43.086Z,3.65
2022-09-12T09:15:43.875Z,4.72
2022-09-12T09:18:30.480Z,4.25
2022-09-12T09:21:09.574Z,3.65
2022-09-12T09:23:47.148Z,3.40
2022-09-12T09:26:26.767Z,3.85
2022-09-12T09:29:06.940Z,2.75
2022-09-12T09:31:40.268Z,3.67
2022-09-12T09:34:20.139Z,3.45
2022-09-12T09:37:20.971Z,3.03
2022-09-12T09:40:24.475Z,3.53
2022-09-12T09:43:02.980Z,3.83
2022-09-12T09:45:30.187Z,2.90
2022-09-12T09:48:08.147Z,3.30
2022-09-12T09:50:35.198Z,2.85
2022-09-12T09:53:03.885Z,2.85
2022-09-12T09:55:39.323Z,3.90
2022-09-12T09:58:06.550Z,3.05
2022-09-12T10:00:38.199Z,3.80
2022-09-12T10:03:05.101Z,3.60
2022-09-12T10:05:37.198Z,3.17
2022-09-12T10:08:07.519Z,3.50
2022-09-12T10:10:34.667Z,2.97
2022-09-12T10:13:24.922Z,2.08
2022-09-12T10:16:17.305Z,2.60
2022-09-12T10:18:44.885Z,2.67
2022-09-12T10:21:16.860Z,2.50
2022-09-12T10:23:45.224Z,2.78
2022-09-12T10:26:19.562Z,2.65
2022-09-12T10:28:56.292Z,2.72
2022-09-12T10:31:33.170Z,2.63
2022-09-12T10:34:02.466Z,2.47
2022-09-12T10:36:38.777Z,3.00
2022-09-12T10:39:06.871Z,2.50
2022-09-12T10:41:40.991Z,1.38
2022-09-12T10:44:19.291Z,2.47
2022-09-12T10:46:46.821Z,2.20
2022-09-12T10:49:24.329Z,2.53
2022-09-12T10:51:54.384Z,2.47
2022-09-12T10:54:27.939Z,2.78
2022-09-12T10:57:18.327Z,2.92
2022-09-12T10:59:45.303Z,2.80
2022-09-12T11:02:39.355Z,3.08
2022-09-12T11:05:22.818Z,2.42
2022-09-12T11:08:01.277Z,2.55
2022-09-12T11:11:11.667Z,2.72
2022-09-12T11:14:19.237Z,1.95
2022-09-12T11:17:24.974Z,3.05
2022-09-12T11:20:34.084Z,2.25
2022-09-12T11:23:07.283Z,3.85
2022-09-12T11:25:43.641Z,3.35
2022-09-12T11:28:38.541Z,2.75
2022-09-12T11:31:44.619Z,2.85
2022-09-12T11:34:55.262Z,2.85
2022-09-12T11:37:53.047Z,3.08
2022-09-12T11:40:35.084Z,2.83
2022-09-12T11:43:30.937Z,2.83
2022-09-12T11:46:09.642Z,3.05
2022-09-12T11:48:59.515Z,2.05
2022-09-12T11:51:40.407Z,2.80
2022-09-12T11:54:55.736Z,2.67
2022-09-12T11:57:41.617Z,2.58
2022-09-12T12:00:23.455Z,3.28
2022-09-12T12:02:59.229Z,2.38
2022-09-12T12:05:45.179Z,2.70
2022-09-12T12:08:12.468Z,1.80
2022-09-12T12:10:50.540Z,1.85
2022-09-12T12:13:27.818Z,1.90
2022-09-12T12:16:07.279Z,1.52
2022-09-12T12:18:38.931Z,1.23
2022-09-12T12:21:38.433Z,1.30
2022-09-12T12:24:08.785Z,1.10
2022-09-12T12:29:45.883Z,1.42
2022-09-12T12:32:22.135Z,0.93
2022-09-12T12:34:49.163Z,1.45
2022-09-12T12:37:18.887Z,0.57
2022-09-12T12:39:50.109Z,0.70
2022-09-12T12:42:37.506Z,0.50
2022-09-12T12:45:26.996Z,0.40
2022-09-12T12:48:08.332Z,0.60
2022-09-12T12:50:35.719Z,1.30
2022-09-12T12:53:17.418Z,0.50
2022-09-12T12:55:44.269Z,0.40
2022-09-12T12:58:32.515Z,0.63
2022-09-12T13:01:14.762Z,0.50
2022-09-12T13:03:55.390Z,0.40
2022-09-12T13:06:36.684Z,0.30
2022-09-12T13:09:19.271Z,0.30
2022-09-12T13:11:47.129Z,0.20
2022-09-12T13:14:38.727Z,0.50
2022-09-12T13:17:08.440Z,0.20
2022-09-12T13:19:38.255Z,0.38
2022-09-12T13:22:10.454Z,0.20
2022-09-12T13:24:54.593Z,0.50
2022-09-12T13:27:25.510Z,0.20
2022-09-12T13:30:18.651Z,0.20
2022-09-12T13:32:45.714Z,0.10
2022-09-12T13:35:28.339Z,0.20
2022-09-12T13:38:18.947Z,0.20
2022-09-12T13:41:10.202Z,0.10
2022-09-12T13:43:44.507Z,0.10
2022-09-12T13:46:17.948Z,0.30
2022-09-12T13:51:26.813Z,0.10
2022-09-12T13:53:58.606Z,0.43
2022-09-12T13:56:26.781Z,0.10
2022-09-12T13:59:00.874Z,0.30
2022-09-12T14:01:48.766Z,0.10
2022-09-12T14:04:44.052Z,0.10
2022-09-12T14:07:24.321Z,0.10
2022-09-12T14:09:59.967Z,0.03
2022-09-12T14:12:31.294Z,0.10
2022-09-12T14:14:58.679Z,0.10
2022-09-12T14:17:39.643Z,0.35
2022-09-12T14:20:18.824Z,0.45
2022-09-12T14:22:50.908Z,0.10
2022-09-12T14:25:22.343Z,0.08
2022-09-12T14:27:54.301Z,0.10
2022-09-12T14:30:32.089Z,0.10
2022-09-12T14:33:11.060Z,0.20
2022-09-12T14:35:51.124Z,0.10
2022-09-12T14:38:17.976Z,0.20
2022-09-12T14:40:49.017Z,0.10
2022-09-12T14:43:26.277Z,0.10
2022-09-12T14:45:59.544Z,0.10
2022-09-12T14:48:31.856Z,0.13
2022-09-12T14:50:59.253Z,0.22
2022-09-12T14:53:32.941Z,0.20
2022-09-12T14:56:12.857Z,0.30
2022-09-12T14:58:41.305Z,0.30
2022-09-12T15:01:08.347Z,0.32
2022-09-12T15:03:53.297Z,0.10
2022-09-12T15:06:34.153Z,0.30
2022-09-12T15:09:12.302Z,0.15
2022-09-12T15:11:39.711Z,0.10
2022-09-12T15:14:13.277Z,0.10
2022-09-12T15:16:40.476Z,0.40
2022-09-12T15:19:07.454Z,0.20
2022-09-12T15:21:34.393Z,0.10
2022-09-12T15:24:01.370Z,0.10
2022-09-12T15:26:31.592Z,0.38
2022-09-12T15:28:58.575Z,0.30
2022-09-12T15:31:29.162Z,0.35
2022-09-12T15:33:59.164Z,0.10
2022-09-12T15:36:27.075Z,0.20
2022-09-12T15:38:55.384Z,0.10
2022-09-12T15:41:37.442Z,0.20
2022-09-12T15:44:06.403Z,0.20
2022-09-12T15:46:33.354Z,0.73
2022-09-12T15:49:00.411Z,0.10
2022-09-12T15:51:27.794Z,0.20
2022-09-12T15:53:54.830Z,0.10
2022-09-12T15:56:22.788Z,0.32
2022-09-12T15:58:58.812Z,0.38
2022-09-12T16:01:28.116Z,0.40
2022-09-12T16:03:55.534Z,0.20
2022-09-12T16:06:22.690Z,0.17
2022-09-12T16:08:49.735Z,0.30
2022-09-12T16:11:25.467Z,0.38
2022-09-12T16:13:53.846Z,0.10
2022-09-12T16:16:21.363Z,0.10
2022-09-12T16:18:48.547Z,0.20
2022-09-12T16:21:16.286Z,0.25
2022-09-12T16:23:45.109Z,0.20
2022-09-12T16:26:12.489Z,0.10
2022-09-12T16:28:40.013Z,0.20
2022-09-12T16:31:10.524Z,0.20
2022-09-12T16:33:39.742Z,0.20
2022-09-12T16:36:13.958Z,0.20
2022-09-12T16:38:51.177Z,0.20
2022-09-12T16:41:27.216Z,0.20
2022-09-12T16:43:54.984Z,0.20
2022-09-12T16:46:25.837Z,0.10
2022-09-12T16:48:57.064Z,0.28
2022-09-12T16:51:32.793Z,0.10
2022-09-12T16:53:59.853Z,0.50
2022-09-12T16:56:27.593Z,0.30
2022-09-12T16:58:55.102Z,0.17
2022-09-12T17:01:25.317Z,0.10
2022-09-12T17:03:58.324Z,0.10
2022-09-12T17:06:26.403Z,0.10
2022-09-12T17:08:56.312Z,0.98
2022-09-12T17:11:33.273Z,0.32
2022-09-12T17:14:06.117Z,0.70
2022-09-12T17:16:37.552Z,0.43
2022-09-12T17:19:06.637Z,0.20
2022-09-12T17:21:35.573Z,0.20
2022-09-12T17:24:03.591Z,0.20
2022-09-12T17:26:30.980Z,0.60
2022-09-12T17:28:58.243Z,0.30
2022-09-12T17:31:25.433Z,0.70
2022-09-12T17:33:58.473Z,0.30
2022-09-12T17:36:26.640Z,0.65
2022-09-12T17:38:54.399Z,0.20
2022-09-12T17:41:25.712Z,0.30
2022-09-12T17:43:57.335Z,0.50
2022-09-12T17:46:31.785Z,0.28
2022-09-12T17:49:01.608Z,0.50
2022-09-12T17:51:31.176Z,0.20
2022-09-12T17:54:09.629Z,0.20
2022-09-12T17:56:37.857Z,0.47
2022-09-12T17:59:06.971Z,0.52
2022-09-12T18:01:52.760Z,0.40
2022-09-12T18:04:20.245Z,0.70
2022-09-12T18:06:50.286Z,0.40
2022-09-12T18:09:22.365Z,0.20
2022-09-12T18:11:50.332Z,0.35
2022-09-12T18:14:19.199Z,0.38
2022-09-12T18:16:47.089Z,0.30
2022-09-12T18:19:15.052Z,0.40
2022-09-12T18:21:41.946Z,0.52
2022-09-12T18:24:10.453Z,0.60
2022-09-12T18:26:37.820Z,0.63
2022-09-12T18:29:04.945Z,0.85
2022-09-12T18:31:32.336Z,1.35
2022-09-12T18:34:01.156Z,0.50
2022-09-12T18:36:30.034Z,1.73
2022-09-12T18:38:59.340Z,0.70
2022-09-12T18:41:28.960Z,0.50
2022-09-12T18:44:02.028Z,0.65
2022-09-12T18:46:31.259Z,0.50
2022-09-12T18:48:59.858Z,0.90
2022-09-12T18:51:31.587Z,1.05
2022-09-12T18:54:06.455Z,0.85
2022-09-12T18:56:37.583Z,0.85
2022-09-12T18:59:07.006Z,1.02
2022-09-12T19:01:37.347Z,0.77
2022-09-12T19:04:06.374Z,1.13
2022-09-12T19:06:38.053Z,1.33
2022-09-12T19:09:09.284Z,0.90
2022-09-12T19:11:39.359Z,1.38
2022-09-12T19:14:07.674Z,1.25
2022-09-12T19:16:35.139Z,1.50
2022-09-12T19:19:03.023Z,2.60
2022-09-12T19:21:32.271Z,2.03
2022-09-12T19:24:03.531Z,1.63
2022-09-12T19:26:30.934Z,1.85
2022-09-12T19:28:57.937Z,2.00
2022-09-12T19:31:26.125Z,2.65
2022-09-12T19:33:53.134Z,2.00
2022-09-12T19:39:09.518Z,2.55
2022-09-12T19:41:37.251Z,2.42
2022-09-12T19:44:04.857Z,2.30
2022-09-12T19:46:32.022Z,2.47
2022-09-12T19:48:59.028Z,2.17
2022-09-12T19:51:26.426Z,2.75
2022-09-12T19:53:54.016Z,2.42
2022-09-12T19:56:21.878Z,2.78
2022-09-12T19:58:55.742Z,2.30
2022-09-12T20:01:30.352Z,3.67
2022-09-12T20:03:58.920Z,2.92
2022-09-12T20:06:27.555Z,2.72
2022-09-12T20:08:56.208Z,2.33
2022-09-12T20:11:25.595Z,3.75
2022-09-12T20:13:53.764Z,2.83
2022-09-12T20:16:25.362Z,2.20
2022-09-12T20:18:56.509Z,2.67
2022-09-12T20:21:31.255Z,3.53
2022-09-12T20:24:02.938Z,2.95
2022-09-12T20:26:30.774Z,3.50
2022-09-12T20:28:57.842Z,3.42
2022-09-12T20:31:24.847Z,4.07
2022-09-12T20:33:52.296Z,3.10
2022-09-12T20:36:21.484Z,3.25
2022-09-12T20:38:57.019Z,3.30
2022-09-12T20:41:25.248Z,3.50
2022-09-12T20:43:54.137Z,3.60
2022-09-12T20:46:22.708Z,2.78
2022-09-12T20:48:51.542Z,4.05
2022-09-12T20:51:20.204Z,4.10
2022-09-12T20:53:52.757Z,2.83
2022-09-12T20:56:21.079Z,2.83
2022-09-12T20:58:48.292Z,3.50
2022-09-12T21:01:16.649Z,2.97
2022-09-12T21:03:45.656Z,3.10
2022-09-12T21:06:17.067Z,3.25
2022-09-12T21:08:46.352Z,4.20
2022-09-12T21:11:15.246Z,3.90
2022-09-12T21:13:42.559Z,4.28
2022-09-12T21:16:16.168Z,3.60
2022-09-12T21:21:13.705Z,3.97
2022-09-12T21:23:41.533Z,5.15
2022-09-12T21:26:08.942Z,8.63
2022-09-12T21:28:36.107Z,7.10
2022-09-12T21:31:03.874Z,6.32
2022-09-12T21:33:31.434Z,6.80
2022-09-12T21:36:03.599Z,5.80
2022-09-12T21:38:31.571Z,6.85
2022-09-12T21:41:14.522Z,7.78
2022-09-12T21:43:42.176Z,7.57
2022-09-12T21:46:10.275Z,7.20
2022-09-12T21:48:37.951Z,7.63
2022-09-12T21:51:05.312Z,8.65
2022-09-12T21:53:32.465Z,7.72
2022-09-12T21:56:08.238Z,7.82
2022-09-12T21:58:36.554Z,7.30
2022-09-12T22:01:05.865Z,6.20
2022-09-12T22:03:33.080Z,6.97
2022-09-12T22:06:03.538Z,6.68
2022-09-12T22:08:33.741Z,6.88
2022-09-12T22:11:04.641Z,6.47
2022-09-12T22:13:32.366Z,7.45
2022-09-12T22:16:02.835Z,7.30
2022-09-12T22:18:32.780Z,8.85
2022-09-12T22:21:12.853Z,7.60
2022-09-12T22:23:58.239Z,7.18
2022-09-12T22:26:27.052Z,8.20
2022-09-12T22:28:54.549Z,8.50
2022-09-12T22:31:28.869Z,9.00
2022-09-12T22:33:57.236Z,9.27
2022-09-12T22:36:28.129Z,10.10
2022-09-12T22:38:58.933Z,11.10
2022-09-12T22:41:26.239Z,11.80
2022-09-12T22:43:53.130Z,10.73
2022-09-12T22:46:20.312Z,12.73
2022-09-12T22:48:47.874Z,12.00
2022-09-12T22:51:18.930Z,13.85
2022-09-12T22:53:46.089Z,12.95
2022-09-12T22:56:13.082Z,12.77
2022-09-12T22:58:41.912Z,13.13
2022-09-12T23:01:10.010Z,13.65
2022-09-12T23:03:37.492Z,14.32
2022-09-12T23:06:05.620Z,14.48
2022-09-12T23:08:35.212Z,13.20
2022-09-12T23:11:13.108Z,13.38
2022-09-12T23:13:43.774Z,14.63
2022-09-12T23:16:17.534Z,14.43
2022-09-12T23:21:14.155Z,15.25
2022-09-12T23:23:41.340Z,14.63
2022-09-12T23:26:17.349Z,14.95
2022-09-12T23:28:59.505Z,14.82
2022-09-12T23:31:31.208Z,15.35
2022-09-12T23:34:02.199Z,15.48
2022-09-12T23:36:30.335Z,14.88
2022-09-12T23:38:58.436Z,16.05
2022-09-12T23:41:25.813Z,18.23
2022-09-12T23:43:52.799Z,17.40
2022-09-12T23:46:21.310Z,16.77
2022-09-12T23:48:49.393Z,17.65
2022-09-12T23:51:16.572Z,18.27
2022-09-12T23:53:43.672Z,18.15
2022-09-12T23:56:11.043Z,17.92
2022-09-12T23:58:38.042Z,17.50
